Time;durP1;ratioP1;P1;durP2;ratioP2;P2;SDS_P1;SDS_P2;PMS_P1;PMS_P2;Temp;Humidity;BMP_temperature;BMP_pressure;BME280_temperature;BME280_humidity;BME280_pressure;Samples;Min_cycle;Max_cycle;Signal;HPM_P1;HPM_P2
2022/05/08 00:01:03;;;;;;;9.05;8.20;;;;;;;10.88;100.00;95940.22;5027517;28;20038;-59
2022/05/08 00:03:29;;;;;;;9.60;8.48;;;;;;;10.80;100.00;95932.19;5027468;28;20030;-59
2022/05/08 00:05:55;;;;;;;9.73;8.80;;;;;;;10.81;100.00;95939.13;5028292;28;20041;-59
2022/05/08 00:08:20;;;;;;;9.48;8.57;;;;;;;10.75;100.00;95937.03;5028363;28;20520;-59
2022/05/08 00:10:46;;;;;;;9.07;8.02;;;;;;;10.67;100.00;95936.88;5026250;28;20025;-59
2022/05/08 00:13:11;;;;;;;9.27;7.75;;;;;;;10.66;100.00;95940.47;5028191;28;20056;-59
2022/05/08 00:15:36;;;;;;;9.15;8.45;;;;;;;10.67;100.00;95935.09;5026581;28;20421;-59
2022/05/08 00:18:02;;;;;;;9.55;8.65;;;;;;;10.67;100.00;95935.09;5027439;28;20104;-59
2022/05/08 00:20:27;;;;;;;7.70;7.20;;;;;;;10.66;100.00;95938.69;5024213;28;20472;-60
2022/05/08 00:22:53;;;;;;;10.20;9.30;;;;;;;10.68;100.00;95938.53;5028044;28;20049;-59
2022/05/08 00:25:19;;;;;;;9.32;7.95;;;;;;;10.67;100.00;95934.22;5025105;28;20630;-59
2022/05/08 00:27:45;;;;;;;8.80;8.10;;;;;;;10.65;100.00;95936.16;5027085;28;20095;-59
2022/05/08 00:30:11;;;;;;;9.32;8.52;;;;;;;10.60;100.00;95929.53;5027523;28;20761;-60
2022/05/08 00:32:36;;;;;;;9.80;8.02;;;;;;;10.59;100.00;95930.50;5029861;28;20510;-59
2022/05/08 00:35:02;;;;;;;8.30;7.63;;;;;;;10.58;100.00;95927.97;5032104;28;20021;-59
2022/05/08 00:37:27;;;;;;;8.75;8.00;;;;;;;10.56;100.00;95925.50;5031400;28;20029;-59
2022/05/08 00:39:52;;;;;;;9.02;8.20;;;;;;;10.58;100.00;95925.34;5031860;28;20029;-59
2022/05/08 00:42:18;;;;;;;9.38;8.55;;;;;;;10.57;100.00;95929.81;5031196;28;20106;-60
2022/05/08 00:44:43;;;;;;;8.35;7.75;;;;;;;10.55;100.00;95929.09;5030627;28;20424;-59
2022/05/08 00:47:09;;;;;;;7.43;6.82;;;;;;;10.57;100.00;95935.06;5032912;28;20055;-59
2022/05/08 00:49:34;;;;;;;8.00;7.10;;;;;;;10.51;100.00;95922.44;5033013;28;20112;-60
2022/05/08 00:52:00;;;;;;;8.45;7.60;;;;;;;10.47;100.00;95934.19;5027215;28;20408;-59
2022/05/08 00:54:26;;;;;;;7.85;7.30;;;;;;;10.45;100.00;95938.75;5029203;28;20033;-58
2022/05/08 00:56:53;;;;;;;7.82;7.22;;;;;;;10.43;100.00;95932.81;5031126;28;20034;-59
2022/05/08 00:59:19;;;;;;;8.20;7.60;;;;;;;10.44;100.00;95931.84;5030870;28;20046;-59
2022/05/08 01:01:45;;;;;;;8.35;7.75;;;;;;;10.44;100.00;95929.22;5031426;28;20025;-59
2022/05/08 01:04:10;;;;;;;9.15;8.20;;;;;;;10.43;100.00;95931.03;5031754;28;20032;-59
2022/05/08 01:06:36;;;;;;;8.95;8.18;;;;;;;10.39;100.00;95932.22;5029675;28;20100;-59
2022/05/08 01:09:01;;;;;;;7.55;7.00;;;;;;;10.35;100.00;95936.06;5031476;28;20411;-59
2022/05/08 01:11:27;;;;;;;11.45;7.55;;;;;;;10.31;100.00;95925.00;5031436;28;20472;-59
2022/05/08 01:13:52;;;;;;;8.15;7.57;;;;;;;10.30;100.00;95925.13;5031827;28;20057;-59
2022/05/08 01:16:20;;;;;;;8.50;7.80;;;;;;;10.31;100.00;95919.75;5031244;28;20033;-59
2022/05/08 01:18:48;;;;;;;7.85;7.30;;;;;;;10.29;100.00;95919.03;5030862;28;20029;-59
2022/05/08 01:21:16;;;;;;;7.93;7.30;;;;;;;10.24;100.00;95925.69;5030767;28;20040;-59
2022/05/08 01:23:42;;;;;;;12.05;7.57;;;;;;;10.22;100.00;95917.91;5031143;28;20033;-59
2022/05/08 01:26:07;;;;;;;8.13;7.53;;;;;;;10.26;100.00;95919.28;5031316;28;20017;-59
2022/05/08 01:28:33;;;;;;;9.05;8.10;;;;;;;10.28;100.00;95917.38;5028815;28;20056;-59
2022/05/08 01:30:58;;;;;;;8.70;7.85;;;;;;;10.28;100.00;95916.53;5030846;28;20629;-59
2022/05/08 01:33:24;;;;;;;8.77;7.95;;;;;;;10.28;100.00;95922.66;5029934;28;20049;-59
2022/05/08 01:35:50;;;;;;;9.57;8.57;;;;;;;10.20;100.00;95911.94;5031048;28;20029;-59
2022/05/08 01:38:21;;;;;;;8.10;7.60;;;;;;;10.17;100.00;95920.94;5029635;28;20156;-59
2022/05/08 01:40:47;;;;;;;7.95;7.35;;;;;;;10.14;100.00;95920.38;5031693;28;20064;-59
2022/05/08 01:43:13;;;;;;;7.88;7.20;;;;;;;10.12;100.00;95914.41;5030797;28;20053;-59
2022/05/08 01:45:40;;;;;;;7.63;7.00;;;;;;;10.08;100.00;95920.91;5030070;28;20033;-59
2022/05/08 01:48:22;;;;;;;7.15;6.65;;;;;;;10.07;100.00;95925.34;5029725;28;20116;-59
2022/05/08 01:50:48;;;;;;;7.20;6.70;;;;;;;10.06;100.00;95914.94;5029279;28;20030;-59
2022/05/08 01:53:13;;;;;;;8.52;7.80;;;;;;;10.05;100.00;95916.75;5029911;28;20563;-60
2022/05/08 01:55:39;;;;;;;8.27;7.60;;;;;;;10.08;100.00;95919.09;5029370;28;20032;-59
2022/05/08 01:58:04;;;;;;;10.60;7.85;;;;;;;10.13;100.00;95921.34;5030332;28;20018;-59
2022/05/08 02:00:31;;;;;;;9.43;6.93;;;;;;;10.14;100.00;95925.63;5028484;28;20041;-59
2022/05/08 02:03:00;;;;;;;8.35;7.53;;;;;;;10.15;100.00;95917.59;5030795;28;20068;-59
2022/05/08 02:05:28;;;;;;;7.95;7.45;;;;;;;10.15;100.00;95919.41;5030939;28;20018;-59
2022/05/08 02:07:54;;;;;;;9.80;7.50;;;;;;;10.17;100.00;95920.09;5028760;28;20033;-59
2022/05/08 02:10:19;;;;;;;8.32;7.63;;;;;;;10.16;100.00;95924.53;5030614;28;20033;-59
2022/05/08 02:12:45;;;;;;;8.15;7.45;;;;;;;10.18;100.00;95930.50;5029332;28;20396;-58
2022/05/08 02:15:12;;;;;;;10.98;7.88;;;;;;;10.18;100.00;95925.25;5030235;28;20025;-59
2022/05/08 02:17:38;;;;;;;7.05;6.47;;;;;;;10.15;100.00;95922.03;5029113;28;20025;-59
2022/05/08 02:20:06;;;;;;;7.35;6.82;;;;;;;10.19;100.00;95915.53;5029994;28;20544;-59
2022/05/08 02:22:32;;;;;;;7.32;6.82;;;;;;;10.21;100.00;95916.22;5029523;28;20029;-59
2022/05/08 02:24:58;;;;;;;7.50;7.00;;;;;;;10.17;100.00;95913.06;5029816;28;20025;-59
2022/05/08 02:27:23;;;;;;;8.20;7.50;;;;;;;10.16;100.00;95914.00;5029131;28;20017;-59
2022/05/08 02:29:50;;;;;;;9.38;7.47;;;;;;;10.17;100.00;95917.47;5029521;28;20737;-60
2022/05/08 02:32:15;;;;;;;7.60;7.00;;;;;;;10.17;100.00;95909.59;5029214;28;20029;-60
2022/05/08 02:34:41;;;;;;;7.30;6.80;;;;;;;10.20;100.00;95919.84;5027757;28;20037;-58
2022/05/08 02:37:06;;;;;;;7.03;6.38;;;;;;;10.20;100.00;95919.84;5029524;28;20084;-59
2022/05/08 02:39:32;;;;;;;7.15;6.30;;;;;;;10.21;100.00;95918.06;5028688;28;20525;-59
2022/05/08 02:41:57;;;;;;;8.10;7.50;;;;;;;10.17;100.00;95915.69;5029811;28;20025;-59
2022/05/08 02:44:22;;;;;;;7.68;7.07;;;;;;;10.17;100.00;95913.06;5028773;28;20040;-60
2022/05/08 02:46:48;;;;;;;6.47;5.97;;;;;;;10.23;100.00;95919.56;5028075;28;20102;-59
2022/05/08 02:49:13;;;;;;;6.80;6.38;;;;;;;10.27;100.00;95910.44;5027694;28;20060;-59
2022/05/08 02:51:39;;;;;;;9.25;6.55;;;;;;;10.22;100.00;95917.09;5027345;28;20033;-60
2022/05/08 02:54:04;;;;;;;6.57;6.07;;;;;;;10.18;100.00;95924.41;5028072;28;20029;-59
2022/05/08 02:59:15;;;;;;;6.70;6.30;;;;;;;10.17;100.00;95915.69;5027615;28;20049;-60
2022/05/08 03:01:41;;;;;;;6.60;6.20;;;;;;;10.18;100.00;95919.13;5027591;28;20030;-59
2022/05/08 03:04:06;;;;;;;6.70;6.30;;;;;;;10.18;100.00;95922.63;5028505;28;20164;-59
2022/05/08 03:06:31;;;;;;;6.43;5.93;;;;;;;10.25;100.00;95917.63;5028521;28;20025;-59
2022/05/08 03:08:58;;;;;;;7.10;6.60;;;;;;;10.22;100.00;95915.28;5028371;28;20025;-59
2022/05/08 03:11:26;;;;;;;6.93;6.43;;;;;;;10.20;100.00;95917.19;5028443;28;20151;-60
2022/05/08 03:13:53;;;;;;;7.00;6.50;;;;;;;10.19;100.00;95912.91;5028293;28;20017;-60
2022/05/08 03:16:19;;;;;;;7.15;6.45;;;;;;;10.16;100.00;95913.19;5027042;28;20037;-59
2022/05/08 03:18:45;;;;;;;7.55;6.75;;;;;;;10.15;100.00;95909.69;5028005;28;20033;-59
2022/05/08 03:21:12;;;;;;;7.38;6.72;;;;;;;10.14;100.00;95909.84;5020366;28;20116;-59
2022/05/08 03:23:40;;;;;;;6.47;6.07;;;;;;;10.14;100.00;95904.59;5026352;28;20500;-59
2022/05/08 03:26:06;;;;;;;7.40;6.65;;;;;;;10.13;100.00;95903.75;5027304;28;20025;-59
2022/05/08 03:28:32;;;;;;;7.05;6.55;;;;;;;10.06;100.00;95907.03;5028869;28;20104;-59
2022/05/08 03:30:59;;;;;;;7.53;5.57;;;;;;;10.05;100.00;95900.97;5027114;28;20021;-59
2022/05/08 03:33:28;;;;;;;6.18;5.78;;;;;;;10.07;100.00;95903.47;5027797;28;20021;-59
2022/05/08 03:35:53;;;;;;;6.45;6.03;;;;;;;10.08;100.00;95903.31;5027284;28;20484;-59
2022/05/08 03:38:19;;;;;;;6.80;6.30;;;;;;;10.12;100.00;95896.00;5027884;28;20028;-59
2022/05/08 03:40:44;;;;;;;7.57;6.78;;;;;;;10.15;100.00;95898.38;5026129;28;20623;-59
2022/05/08 03:43:10;;;;;;;7.65;6.95;;;;;;;10.17;100.00;95902.53;5027709;28;20045;-60
2022/05/08 03:45:36;;;;;;;6.93;6.43;;;;;;;10.20;100.00;95898.78;5026095;28;20017;-59
2022/05/08 03:48:02;;;;;;;6.97;6.38;;;;;;;10.24;100.00;95899.34;5026354;28;20025;-59
2022/05/08 03:50:28;;;;;;;6.75;6.25;;;;;;;10.28;100.00;95898.97;5026521;28;20079;-60
2022/05/08 03:52:57;;;;;;;6.78;6.28;;;;;;;10.31;100.00;95896.06;5025510;28;20033;-59
2022/05/08 03:55:23;;;;;;;6.35;5.95;;;;;;;10.32;100.00;95894.25;5027802;28;20370;-58
2022/05/08 03:57:48;;;;;;;6.72;6.22;;;;;;;10.32;100.00;95895.09;5026794;28;20041;-60
2022/05/08 04:00:15;;;;;;;6.75;6.25;;;;;;;10.34;100.00;95896.75;5026115;28;20088;-59
2022/05/08 04:02:41;;;;;;;6.80;6.30;;;;;;;10.31;100.00;95896.06;5025267;28;20400;-59
2022/05/08 04:05:07;;;;;;;5.82;5.45;;;;;;;10.31;100.00;95898.69;5025628;28;20025;-59
2022/05/08 04:07:32;;;;;;;6.60;6.00;;;;;;;10.33;100.00;95898.53;5026758;28;20025;-59
2022/05/08 04:09:58;;;;;;;6.80;6.05;;;;;;;10.32;100.00;95910.88;5026536;28;20032;-59
2022/05/08 04:12:25;;;;;;;5.88;5.47;;;;;;;10.32;100.00;95902.13;5025820;28;20034;-59
2022/05/08 04:14:50;;;;;;;6.43;5.82;;;;;;;10.31;100.00;95906.59;5024731;28;20059;-59
2022/05/08 04:17:18;;;;;;;7.30;6.00;;;;;;;10.32;100.00;95902.13;5025297;28;20116;-59
2022/05/08 04:19:44;;;;;;;7.47;6.82;;;;;;;10.35;100.00;95908.94;5025204;28;20025;-59
2022/05/08 04:24:53;;;;;;;8.07;7.28;;;;;;;10.37;100.00;95913.09;5027029;28;20040;-59
2022/05/08 04:27:19;;;;;;;7.13;6.63;;;;;;;10.35;100.00;95911.56;5026037;28;20029;-59
2022/05/08 04:29:45;;;;;;;7.78;6.88;;;;;;;10.37;100.00;95915.72;5026203;28;20493;-60
2022/05/08 04:32:10;;;;;;;8.45;5.60;;;;;;;10.37;100.00;95914.91;5026515;28;20067;-59
2022/05/08 04:34:36;;;;;;;6.25;5.85;;;;;;;10.39;100.00;95924.34;5026366;28;20502;-59
2022/05/08 04:37:03;;;;;;;6.10;5.70;;;;;;;10.43;100.00;95925.75;5027259;28;20491;-59
2022/05/08 04:39:28;;;;;;;5.88;5.47;;;;;;;10.44;100.00;95924.78;5026976;28;20029;-59
2022/05/08 04:41:54;;;;;;;5.80;5.38;;;;;;;10.45;100.00;95925.59;5027134;28;20021;-59
2022/05/08 04:44:19;;;;;;;6.18;5.68;;;;;;;10.46;100.00;95928.13;5027032;28;20492;-59
2022/05/08 04:46:44;;;;;;;5.30;5.00;;;;;;;10.49;100.00;95932.25;5028013;28;20100;-60
2022/05/08 04:49:10;;;;;;;5.70;5.40;;;;;;;10.46;100.00;95935.16;5026855;28;20041;-59
2022/05/08 04:51:36;;;;;;;5.47;5.10;;;;;;;10.44;100.00;95943.22;5027903;28;20480;-59
2022/05/08 04:54:02;;;;;;;5.68;5.28;;;;;;;10.47;100.00;95939.47;5027142;28;20461;-59
2022/05/08 04:56:28;;;;;;;6.75;5.38;;;;;;;10.46;100.00;95935.16;5026048;28;20049;-59
2022/05/08 04:58:53;;;;;;;5.72;5.32;;;;;;;10.48;100.00;95942.94;5026775;28;20103;-59
2022/05/08 05:01:18;;;;;;;5.60;5.13;;;;;;;10.50;100.00;95941.00;5026991;28;20037;-59
2022/05/08 05:03:44;;;;;;;7.07;5.40;;;;;;;10.51;100.00;95940.88;5027475;28;20075;-59
2022/05/08 05:06:10;;;;;;;5.40;5.00;;;;;;;10.53;100.00;95938.94;5026937;28;20057;-59
2022/05/08 05:08:35;;;;;;;5.35;4.80;;;;;;;10.57;100.00;95939.47;5027835;28;20100;-59
2022/05/08 05:11:00;;;;;;;4.60;4.30;;;;;;;10.56;100.00;95946.56;5027208;28;20029;-59
2022/05/08 05:13:26;;;;;;;4.90;4.57;;;;;;;10.56;100.00;95949.19;5027918;28;20072;-59
2022/05/08 05:15:51;;;;;;;5.10;4.70;;;;;;;10.57;100.00;95961.38;5027761;28;20017;-59
2022/05/08 05:18:17;;;;;;;7.53;4.53;;;;;;;10.60;100.00;95958.47;5029024;28;20112;-59
2022/05/08 05:20:45;;;;;;;4.72;4.43;;;;;;;10.67;100.00;95961.41;5031158;28;20547;-59
2022/05/08 05:23:11;;;;;;;5.10;4.70;;;;;;;10.70;100.00;95955.88;5030427;28;20465;-59
2022/05/08 05:25:36;;;;;;;4.40;4.05;;;;;;;10.67;100.00;95950.88;5031029;28;20014;-59
2022/05/08 05:28:02;;;;;;;4.65;4.35;;;;;;;10.72;100.00;95953.09;5030350;28;20487;-58
2022/05/08 05:30:27;;;;;;;4.13;3.88;;;;;;;10.73;100.00;95947.69;5029936;28;20500;-59
2022/05/08 05:32:52;;;;;;;4.50;4.20;;;;;;;10.83;100.00;95960.88;5031174;28;20021;-59
2022/05/08 05:35:18;;;;;;;5.15;4.35;;;;;;;10.83;100.00;95955.59;5030284;28;20120;-58
2022/05/08 05:37:43;;;;;;;4.70;4.30;;;;;;;10.89;100.00;95957.69;5030868;28;20024;-59
2022/05/08 05:40:09;;;;;;;4.75;4.35;;;;;;;10.98;100.00;95957.84;5030012;28;20026;-58
2022/05/08 05:42:35;;;;;;;4.35;4.13;;;;;;;11.08;100.00;95961.31;5030949;28;20698;-58
2022/05/08 05:45:01;;;;;;;4.57;4.28;;;;;;;11.14;100.00;95963.38;5031040;28;20018;-59
2022/05/08 05:50:11;;;;;;;5.07;4.25;;;;;;;11.22;100.00;95965.31;5030254;28;20079;-58
2022/05/08 05:52:37;;;;;;;4.65;4.30;;;;;;;11.28;100.00;95962.16;5030843;28;20040;-59
2022/05/08 05:55:06;;;;;;;4.50;4.30;;;;;;;11.35;100.00;95957.13;5029954;28;20013;-58
2022/05/08 05:57:36;;;;;;;5.03;4.63;;;;;;;11.36;100.00;95968.50;5029465;28;20063;-58
2022/05/08 06:00:05;;;;;;;6.50;4.47;;;;;;;11.39;100.00;95958.53;5030508;28;20041;-59
2022/05/08 06:02:31;;;;;;;4.93;4.47;;;;;;;11.44;100.00;95966.84;5028337;28;20029;-59
2022/05/08 06:04:56;;;;;;;4.40;4.10;;;;;;;11.49;100.00;95962.94;5030152;28;20524;-59
2022/05/08 06:07:22;;;;;;;4.63;4.30;;;;;;;11.59;100.00;95964.59;5029226;28;20413;-59
2022/05/08 06:09:47;;;;;;;4.80;4.10;;;;;;;11.80;100.00;95960.94;5029408;28;20021;-59
2022/05/08 06:12:12;;;;;;;4.40;4.20;;;;;;;11.81;100.00;95962.59;5028878;28;20500;-58
2022/05/08 06:14:38;;;;;;;4.38;4.07;;;;;;;11.74;100.00;95964.97;5028990;28;20116;-59
2022/05/08 06:17:03;;;;;;;4.03;3.72;;;;;;;11.81;100.00;95964.41;5030809;28;20447;-59
2022/05/08 06:19:31;;;;;;;3.75;3.55;;;;;;;12.00;100.00;95960.88;5023784;28;20076;-58
2022/05/08 06:21:56;;;;;;;4.82;4.53;;;;;;;12.13;100.00;95956.13;5030404;28;20061;-59
2022/05/08 06:24:22;;;;;;;4.40;3.85;;;;;;;12.60;99.72;95955.22;5027905;28;20099;-58
2022/05/08 06:26:47;;;;;;;4.35;4.05;;;;;;;13.22;96.36;95953.66;5029244;28;20010;-59
2022/05/08 06:29:12;;;;;;;3.72;3.53;;;;;;;13.78;92.86;95958.75;5028268;28;20469;-57
2022/05/08 06:31:38;;;;;;;4.82;4.00;;;;;;;14.05;90.79;95954.28;5029854;28;20104;-59
2022/05/08 06:34:03;;;;;;;4.10;3.90;;;;;;;14.26;88.62;95959.19;5029314;28;20020;-59
2022/05/08 06:36:29;;;;;;;4.30;4.00;;;;;;;14.42;88.03;95958.44;5030277;28;20013;-58
2022/05/08 06:38:54;;;;;;;3.65;3.35;;;;;;;14.60;84.61;95955.69;5029068;28;20017;-59
2022/05/08 06:41:20;;;;;;;4.30;3.90;;;;;;;14.75;83.45;95957.75;5028566;28;20044;-59
2022/05/08 06:43:45;;;;;;;4.97;4.03;;;;;;;14.93;82.31;95954.97;5029177;28;20029;-59
2022/05/08 06:46:11;;;;;;;3.92;3.58;;;;;;;15.18;81.35;95953.19;5027040;28;20030;-57
2022/05/08 06:48:37;;;;;;;3.90;3.60;;;;;;;15.12;80.24;95958.31;5022496;28;20025;-59
2022/05/08 06:51:03;;;;;;;3.97;3.67;;;;;;;14.37;82.48;95962.53;5024360;28;20026;-59
2022/05/08 06:53:30;;;;;;;3.50;3.30;;;;;;;14.18;85.72;95959.13;5022428;28;20095;-59
2022/05/08 06:55:56;;;;;;;5.15;3.97;;;;;;;14.26;83.85;95964.50;5019933;28;20056;-58
2022/05/08 06:58:21;;;;;;;4.63;4.18;;;;;;;14.22;84.35;95967.59;5026173;28;20473;-59
2022/05/08 07:03:31;;;;;;;4.80;4.55;;;;;;;14.17;83.56;95963.63;5022279;28;20552;-58
2022/05/08 07:05:57;;;;;;;5.05;4.75;;;;;;;14.24;83.58;95977.03;5023372;28;20025;-58
2022/05/08 07:08:23;;;;;;;5.40;5.05;;;;;;;13.74;85.37;95976.75;5018640;28;20099;-58
2022/05/08 07:10:49;;;;;;;5.72;5.00;;;;;;;13.52;87.82;95978.09;5021081;28;20045;-58
2022/05/08 07:13:15;;;;;;;4.80;4.50;;;;;;;13.53;88.52;95976.25;5019806;28;20127;-59
2022/05/08 07:15:41;;;;;;;5.57;5.18;;;;;;;13.41;89.89;95976.47;5020715;28;20037;-59
2022/05/08 07:18:06;;;;;;;9.90;5.25;;;;;;;13.61;89.61;95976.34;5029036;28;20493;-59
2022/05/08 07:20:32;;;;;;;5.55;5.20;;;;;;;13.53;89.38;95985.03;5022937;28;20034;-59
2022/05/08 07:22:58;;;;;;;6.00;5.40;;;;;;;13.55;89.41;95976.94;5017444;28;20022;-59
2022/05/08 07:25:23;;;;;;;5.78;5.15;;;;;;;13.69;89.34;95980.84;5021569;28;20034;-59
2022/05/08 07:27:48;;;;;;;7.13;5.40;;;;;;;14.15;86.93;95984.13;5015296;28;20037;-59
2022/05/08 07:30:14;;;;;;;5.90;5.50;;;;;;;14.98;83.08;95984.47;5019718;28;20040;-59
2022/05/08 07:32:39;;;;;;;6.32;5.82;;;;;;;15.26;80.68;95984.19;5017561;28;20500;-59
2022/05/08 07:37:49;;;;;;;5.80;5.30;;;;;;;15.86;77.16;95986.66;5018251;28;20118;-59
2022/05/08 07:40:15;;;;;;;5.78;5.28;;;;;;;15.88;74.80;95985.53;5023479;28;20037;-60
2022/05/08 07:42:40;;;;;;;5.22;4.82;;;;;;;16.02;76.56;95997.28;5023121;28;20041;-59
2022/05/08 07:45:06;;;;;;;5.53;5.15;;;;;;;16.38;74.81;95989.91;5014880;28;20030;-59
2022/05/08 07:47:32;;;;;;;5.47;5.07;;;;;;;16.79;72.73;95992.41;5022177;28;20445;-60
2022/05/08 07:49:57;;;;;;;4.97;4.57;;;;;;;16.71;73.40;95989.78;5012952;28;20036;-59
2022/05/08 07:52:23;;;;;;;6.18;5.15;;;;;;;16.54;73.69;96004.94;5024825;28;20033;-59
2022/05/08 07:54:50;;;;;;;5.47;5.00;;;;;;;17.00;71.39;95993.66;5016790;28;20485;-59
2022/05/08 07:57:15;;;;;;;4.93;4.47;;;;;;;17.27;69.52;95995.00;5021824;28;20026;-59
2022/05/08 07:59:40;;;;;;;4.72;4.43;;;;;;;17.38;68.69;95990.25;5026904;28;20443;-59
2022/05/08 08:02:07;;;;;;;5.75;5.25;;;;;;;17.11;69.57;95995.91;5022283;28;20045;-58
2022/05/08 08:04:34;;;;;;;4.82;4.47;;;;;;;17.21;69.75;95995.69;5020683;28;20465;-59
2022/05/08 08:07:00;;;;;;;6.10;4.57;;;;;;;17.29;70.05;95997.47;5013433;28;20025;-59
2022/05/08 08:09:25;;;;;;;5.60;4.68;;;;;;;17.50;68.51;95998.66;5021579;28;20025;-59
2022/05/08 08:11:51;;;;;;;5.05;4.47;;;;;;;18.06;67.05;95998.38;5019778;28;20021;-59
2022/05/08 08:14:16;;;;;;;4.80;4.50;;;;;;;18.29;64.26;95997.47;5019628;28;20057;-59
2022/05/08 08:16:41;;;;;;;4.97;4.43;;;;;;;17.98;65.89;95999.22;5024643;28;20515;-59
2022/05/08 08:19:07;;;;;;;4.20;3.90;;;;;;;18.58;64.35;96001.16;5024133;28;20027;-59
2022/05/08 08:21:33;;;;;;;6.47;4.22;;;;;;;19.09;63.51;95999.53;5017434;28;20033;-59
2022/05/08 08:23:58;;;;;;;4.30;3.97;;;;;;;19.39;60.98;96002.09;5020987;28;20033;-59
2022/05/08 08:26:24;;;;;;;4.03;3.78;;;;;;;19.18;58.80;96003.72;5023579;28;20049;-59
2022/05/08 08:28:49;;;;;;;4.13;3.83;;;;;;;19.27;58.06;96005.28;5016772;28;20052;-59
2022/05/08 08:31:15;;;;;;;4.15;3.65;;;;;;;19.87;58.36;96009.53;5019834;28;20068;-59
2022/05/08 08:33:42;;;;;;;3.70;3.50;;;;;;;19.81;57.38;96011.13;5025414;28;20025;-59
2022/05/08 08:36:08;;;;;;;4.07;3.88;;;;;;;19.56;56.36;96013.34;5020850;28;20018;-60
2022/05/08 08:38:35;;;;;;;3.47;3.22;;;;;;;19.47;56.76;96002.81;5023913;28;20123;-60
2022/05/08 08:41:04;;;;;;;3.90;3.70;;;;;;;18.82;58.71;96013.34;5020786;28;20029;-60
2022/05/08 08:47:42;;;;;;;3.72;3.53;;;;;;;18.24;60.10;96007.84;5021258;28;20041;-59
2022/05/08 08:49:02;;;;;;;4.05;3.78;;;;;;;17.54;63.92;96021.22;5015278;28;20033;-60
2022/05/08 08:51:27;;;;;;;3.80;3.55;;;;;;;17.47;63.41;96016.63;5020884;28;20033;-60
2022/05/08 08:53:55;;;;;;;4.00;3.70;;;;;;;17.79;62.78;96013.88;5019145;28;20526;-60
2022/05/08 08:56:21;;;;;;;3.47;3.28;;;;;;;17.74;60.90;96013.59;5028939;28;20153;-60
2022/05/08 08:58:47;;;;;;;3.92;3.60;;;;;;;17.98;60.99;96015.22;5028620;28;20056;-60
2022/05/08 09:01:14;;;;;;;3.60;3.40;;;;;;;18.42;59.74;96013.66;5017725;28;20041;-60
2022/05/08 09:03:39;;;;;;;4.63;3.92;;;;;;;18.54;59.22;96027.34;5024219;28;20033;-60
2022/05/08 09:06:08;;;;;;;3.53;3.30;;;;;;;19.71;58.11;96019.47;5022062;28;20030;-60
2022/05/08 09:08:35;;;;;;;3.80;3.50;;;;;;;20.67;53.45;96019.97;5032423;28;20035;-60
2022/05/08 09:11:01;;;;;;;3.58;3.28;;;;;;;20.60;52.93;96025.28;5021920;28;20049;-59
2022/05/08 09:13:28;;;;;;;4.72;3.65;;;;;;;20.65;53.07;96026.53;5024239;28;20033;-60
2022/05/08 09:16:06;;;;;;;3.53;3.22;;;;;;;19.70;57.15;96015.13;5026991;28;20440;-60
2022/05/08 09:18:45;;;;;;;6.95;3.38;;;;;;;19.24;58.59;96021.69;5023742;28;20033;-60
2022/05/08 09:24:13;;;;;;;5.32;3.90;;;;;;;18.42;58.40;96026.13;5018962;28;20508;-59
2022/05/08 09:26:39;;;;;;;3.80;3.60;;;;;;;18.46;58.65;96030.13;5019984;28;20610;-60
2022/05/08 09:29:05;;;;;;;5.38;3.70;;;;;;;18.03;60.42;96026.22;5022549;28;20523;-60
2022/05/08 09:31:41;;;;;;;3.90;3.70;;;;;;;18.03;59.40;96030.69;5014837;28;20026;-60
2022/05/08 09:34:07;;;;;;;5.50;4.15;;;;;;;18.12;60.46;96018.13;5017471;28;20109;-59
2022/05/08 09:36:33;;;;;;;3.80;3.60;;;;;;;18.16;59.19;96025.59;5025149;28;20152;-59
2022/05/08 09:39:00;;;;;;;4.00;3.55;;;;;;;17.66;60.21;96027.81;5023994;28;20481;-60
2022/05/08 09:41:27;;;;;;;3.83;3.53;;;;;;;17.29;62.67;96024.91;5019702;28;20033;-59
2022/05/08 09:43:55;;;;;;;4.38;4.10;;;;;;;17.44;61.02;96030.28;5025523;28;20013;-60
2022/05/08 09:46:21;;;;;;;3.83;3.63;;;;;;;17.52;62.66;96029.41;5029368;28;20029;-59
2022/05/08 09:48:48;;;;;;;4.45;4.15;;;;;;;17.68;63.02;96020.47;5014617;28;20405;-60
2022/05/08 09:51:15;;;;;;;3.58;3.28;;;;;;;18.71;57.89;96021.84;5022506;28;20501;-59
2022/05/08 09:53:42;;;;;;;4.20;3.83;;;;;;;18.57;58.00;96026.97;5027875;28;20025;-60
2022/05/08 09:56:09;;;;;;;3.88;3.67;;;;;;;18.58;57.01;96025.97;5023954;28;20060;-60
2022/05/08 09:58:35;;;;;;;3.75;3.50;;;;;;;19.45;52.55;96023.53;5015883;28;20050;-59
2022/05/08 10:01:02;;;;;;;6.32;3.88;;;;;;;19.99;54.15;96021.38;5026629;28;20072;-59
2022/05/08 10:03:28;;;;;;;4.20;3.90;;;;;;;20.68;51.96;96026.97;5027891;28;20029;-59
2022/05/08 10:05:55;;;;;;;3.83;3.47;;;;;;;21.36;50.98;96032.63;5025950;28;20595;-59
2022/05/08 10:08:26;;;;;;;3.13;2.90;;;;;;;21.05;49.62;96026.75;5028607;28;20072;-60
2022/05/08 10:14:00;;;;;;;3.55;3.35;;;;;;;19.99;53.68;96024.03;5020015;28;20504;-59
2022/05/08 10:16:47;;;;;;;5.82;3.40;;;;;;;19.75;51.94;96025.25;5016459;28;20034;-59
2022/05/08 10:19:18;;;;;;;5.63;3.30;;;;;;;19.42;54.15;96026.59;5027159;28;20065;-59
2022/05/08 10:22:13;;;;;;;3.22;3.05;;;;;;;19.10;55.66;96023.34;5025669;28;20036;-59
2022/05/08 10:24:47;;;;;;;4.10;3.78;;;;;;;18.84;55.91;96027.31;5023827;28;20100;-59
2022/05/08 10:27:15;;;;;;;3.45;3.25;;;;;;;18.73;55.20;96023.28;5028193;28;20026;-59
2022/05/08 10:30:03;;;;;;;5.32;3.47;;;;;;;19.52;55.69;96025.44;5028449;28;20099;-59
2022/05/08 10:32:50;;;;;;;4.00;3.70;;;;;;;19.16;53.51;96024.44;5020948;28;20065;-59
2022/05/08 10:35:17;;;;;;;3.45;3.25;;;;;;;18.74;55.11;96011.59;5023408;28;20128;-59
2022/05/08 10:37:46;;;;;;;3.92;3.53;;;;;;;18.75;54.97;96018.59;5019971;28;20038;-59
2022/05/08 10:40:24;;;;;;;3.50;3.20;;;;;;;19.02;56.84;96016.31;5024967;28;20409;-59
2022/05/08 10:42:57;;;;;;;3.83;3.55;;;;;;;19.18;56.54;96017.91;5018788;28;20056;-59
2022/05/08 10:45:32;;;;;;;3.83;3.50;;;;;;;19.44;56.64;96016.53;5023423;28;20120;-59
2022/05/08 10:48:07;;;;;;;4.22;3.92;;;;;;;19.26;56.90;96019.66;5026548;28;21090;-59
2022/05/08 10:50:34;;;;;;;3.58;3.40;;;;;;;18.97;55.02;96018.66;5016679;28;20026;-59
2022/05/08 10:52:59;;;;;;;3.53;3.28;;;;;;;19.10;56.64;96020.69;5027410;28;20049;-59
2022/05/08 10:55:26;;;;;;;5.18;3.13;;;;;;;19.06;55.68;96024.75;5022258;28;20493;-59
2022/05/08 10:57:53;;;;;;;3.85;3.55;;;;;;;19.05;57.24;96017.75;5027024;28;20064;-59
2022/05/08 11:00:24;;;;;;;3.88;3.60;;;;;;;19.68;55.24;96017.19;5016095;28;20140;-59
2022/05/08 11:03:08;;;;;;;3.80;3.45;;;;;;;20.11;54.98;96013.66;5027278;28;20044;-59
2022/05/08 11:05:38;;;;;;;4.18;3.70;;;;;;;20.25;51.32;96011.06;5024444;28;20025;-59
2022/05/08 11:08:05;;;;;;;3.35;3.10;;;;;;;19.99;52.94;96018.69;5026080;28;20076;-59
2022/05/08 11:10:38;;;;;;;4.78;4.32;;;;;;;19.81;53.79;96013.00;5023988;28;20017;-59
2022/05/08 11:13:11;;;;;;;3.88;3.55;;;;;;;20.21;53.70;96018.66;5023557;28;20033;-59
2022/05/08 11:15:37;;;;;;;3.92;3.63;;;;;;;20.15;51.73;96017.59;5017947;28;20641;-59
2022/05/08 11:18:08;;;;;;;4.28;3.90;;;;;;;20.18;52.64;96013.69;5024138;28;20034;-59
2022/05/08 11:20:37;;;;;;;3.70;3.50;;;;;;;19.83;53.35;96018.97;5020281;28;20030;-59
2022/05/08 11:23:06;;;;;;;3.72;3.53;;;;;;;19.85;53.28;96019.59;5014343;28;20621;-59
2022/05/08 11:25:33;;;;;;;4.30;4.00;;;;;;;20.74;51.24;96018.16;5017877;28;20017;-59
2022/05/08 11:27:59;;;;;;;3.75;3.55;;;;;;;21.24;51.37;96013.66;5024026;28;20277;-59
2022/05/08 11:30:32;;;;;;;3.95;3.40;;;;;;;22.14;49.00;96012.53;5016309;28;20843;-59
2022/05/08 11:36:11;;;;;;;4.85;4.55;;;;;;;21.33;49.06;96004.38;5019413;28;20064;-59
2022/05/08 11:38:50;;;;;;;8.65;7.95;;;;;;;20.25;50.77;96011.91;5020158;28;20090;-59
2022/05/08 11:41:27;;;;;;;4.07;3.78;;;;;;;19.81;52.88;96010.31;5026621;28;20087;-59
2022/05/08 11:43:58;;;;;;;3.70;3.50;;;;;;;19.24;53.26;96016.34;5020631;28;20437;-59
2022/05/08 11:46:37;;;;;;;3.90;3.60;;;;;;;19.63;55.13;96008.09;5021276;28;20460;-59
2022/05/08 11:49:26;;;;;;;3.67;3.47;;;;;;;20.42;51.13;96007.09;5018873;28;20531;-59
2022/05/08 11:51:59;;;;;;;3.80;3.50;;;;;;;21.49;48.34;96007.72;5022961;28;20503;-59
2022/05/08 11:54:28;;;;;;;4.13;3.88;;;;;;;21.93;46.36;95989.47;5014342;28;20036;-60